createdAt,value
2018-06-28T14:37:27.473Z,380.00
2018-06-28T14:38:27.501Z,380.00
2018-06-28T14:40:20.390Z,388.00
2018-06-28T14:41:20.401Z,404.00
2018-06-28T14:43:13.327Z,304.00
2018-06-28T14:44:13.317Z,300.00
2018-06-28T14:46:07.167Z,262140.00
2018-06-28T14:47:07.221Z,262140.00
2018-06-28T14:49:00.414Z,262140.00
2018-06-28T14:50:00.394Z,262140.00
2018-06-28T14:51:53.309Z,192.00
2018-06-28T14:52:53.322Z,240.00
2018-06-28T14:54:46.239Z,164.00
2018-06-28T14:55:46.236Z,236.00
2018-06-28T14:57:39.138Z,208.00
2018-06-28T14:58:39.261Z,216.00
2018-06-28T15:00:32.062Z,204.00
2018-06-28T15:01:32.060Z,212.00
2018-06-28T15:03:24.984Z,212.00
2018-06-28T15:04:24.977Z,208.00
2018-06-28T15:06:19.899Z,204.00
2018-06-28T15:07:19.899Z,204.00
2018-06-28T15:08:19.916Z,208.00
2018-06-28T15:09:19.921Z,204.00
2018-06-28T15:10:19.931Z,208.00
2018-06-28T15:11:19.950Z,204.00
2018-06-28T15:12:19.955Z,204.00
2018-06-28T15:13:19.962Z,208.00
2018-06-28T15:14:19.975Z,192.00
2018-06-28T15:15:20.016Z,204.00
2018-06-28T15:16:19.997Z,208.00
2018-06-28T15:17:20.009Z,212.00
2018-06-28T15:18:20.024Z,208.00
2018-06-28T15:19:20.044Z,220.00
2018-06-28T15:20:20.045Z,204.00
2018-06-28T15:21:20.124Z,200.00
2018-06-28T15:22:20.066Z,216.00
2018-06-28T15:23:20.081Z,212.00
2018-06-28T15:24:20.091Z,208.00
2018-06-28T15:25:20.099Z,208.00
2018-06-28T15:26:20.111Z,208.00
2018-06-28T15:27:20.172Z,204.00
2018-06-28T15:28:20.132Z,200.00
2018-06-28T15:29:20.144Z,204.00
2018-06-28T15:30:20.159Z,200.00
2018-06-28T15:31:20.166Z,192.00
2018-06-28T15:32:20.177Z,200.00
2018-06-28T15:33:20.262Z,192.00
2018-06-28T15:34:20.204Z,168.00
2018-06-28T15:35:20.213Z,164.00
2018-06-28T15:36:20.221Z,168.00
2018-06-28T15:37:20.230Z,100.00
2018-06-28T15:38:20.250Z,124.00
2018-06-28T15:39:20.268Z,120.00
2018-06-28T15:40:20.266Z,192.00
2018-06-28T15:41:20.295Z,200.00
2018-06-28T15:42:20.288Z,196.00
2018-06-28T15:43:20.296Z,200.00
2018-06-28T15:44:20.310Z,200.00
2018-06-28T15:45:20.318Z,200.00
2018-06-28T15:46:20.337Z,196.00
2018-06-28T15:47:20.352Z,124.00
2018-06-28T15:48:20.351Z,136.00
